createdAt,value
2022-08-26T00:00:29.371Z,92704.03
2022-08-26T00:02:01.650Z,92714.56
2022-08-26T00:03:34.530Z,92710.63
2022-08-26T00:05:06.251Z,92715.66
2022-08-26T00:06:37.871Z,92711.34
2022-08-26T00:08:14.765Z,92713.22
2022-08-26T00:09:47.320Z,92705.75
2022-08-26T00:11:26.328Z,92713.06
2022-08-26T00:12:58.733Z,92717.69
2022-08-26T00:14:31.669Z,92709.94
2022-08-26T00:16:04.333Z,92708.00
2022-08-26T00:17:36.504Z,92709.56
2022-08-26T00:19:12.654Z,92712.28
2022-08-26T00:20:44.775Z,92700.19
2022-08-26T00:22:21.472Z,92704.84
2022-08-26T00:23:53.608Z,92702.44
2022-08-26T00:25:25.548Z,92704.00
2022-08-26T00:26:57.384Z,92693.94
2022-08-26T00:28:30.394Z,92700.63
2022-08-26T00:30:02.647Z,92701.38
2022-08-26T00:31:34.357Z,92695.88
2022-08-26T00:33:08.228Z,92702.56
2022-08-26T00:34:40.204Z,92691.66
2022-08-26T00:36:19.937Z,92697.47
2022-08-26T00:37:52.178Z,92691.59
2022-08-26T00:39:24.140Z,92700.41
2022-08-26T00:40:56.014Z,92699.22
2022-08-26T00:42:27.947Z,92696.06
2022-08-26T00:43:59.878Z,92698.28
2022-08-26T00:45:34.938Z,92693.19
2022-08-26T00:47:08.132Z,92698.97
2022-08-26T00:48:39.817Z,92698.91
2022-08-26T00:50:14.902Z,92702.41
2022-08-26T00:51:51.344Z,92694.59
2022-08-26T00:53:24.130Z,92702.41
2022-08-26T00:55:20.896Z,92697.66
2022-08-26T00:56:57.872Z,92700.75
2022-08-26T00:58:32.998Z,92703.84
2022-08-26T01:00:06.859Z,92702.25
2022-08-26T01:01:38.769Z,92703.47
2022-08-26T01:03:11.552Z,92706.56
2022-08-26T01:04:44.587Z,92704.97
2022-08-26T01:06:17.148Z,92708.84
2022-08-26T01:07:49.809Z,92705.34
2022-08-26T01:09:22.365Z,92703.38
2022-08-26T01:10:54.985Z,92703.28
2022-08-26T01:12:28.269Z,92700.94
2022-08-26T01:14:00.376Z,92699.34
2022-08-26T01:15:35.082Z,92701.22
2022-08-26T01:17:07.658Z,92696.94
2022-08-26T01:18:41.391Z,92698.88
2022-08-26T01:20:17.877Z,92698.50
2022-08-26T01:21:57.142Z,92704.38
2022-08-26T01:23:29.943Z,92703.28
2022-08-26T01:25:03.464Z,92685.03
2022-08-26T01:26:41.635Z,92695.91
2022-08-26T01:28:32.420Z,92697.84
2022-08-26T01:30:05.558Z,92696.28
2022-08-26T01:31:41.887Z,92691.53
2022-08-26T01:33:15.350Z,92691.53
2022-08-26T01:34:47.405Z,92688.81
2022-08-26T01:36:19.541Z,92692.25
2022-08-26T01:37:52.844Z,92693.31
2022-08-26T01:39:25.194Z,92700.56
2022-08-26T01:40:57.106Z,92695.13
2022-08-26T01:42:29.032Z,92693.53
2022-08-26T01:44:01.120Z,92694.25
2022-08-26T01:45:33.497Z,92688.28
2022-08-26T01:47:06.507Z,92687.06
2022-08-26T01:48:38.385Z,92687.78
2022-08-26T01:50:12.231Z,92687.19
2022-08-26T01:51:47.697Z,92689.78
2022-08-26T01:53:19.496Z,92689.78
2022-08-26T01:54:53.132Z,92698.75
2022-08-26T01:56:25.255Z,92693.22
2022-08-26T01:58:06.329Z,92683.44
2022-08-26T01:59:38.225Z,92684.56
2022-08-26T02:01:10.150Z,92685.28
2022-08-26T02:02:44.105Z,92688.38
2022-08-26T02:04:30.239Z,92686.75
2022-08-26T02:06:04.162Z,92689.06
2022-08-26T02:07:35.804Z,92682.84
2022-08-26T02:09:07.620Z,92691.78
2022-08-26T02:10:39.177Z,92694.13
2022-08-26T02:12:12.008Z,92690.16
2022-08-26T02:13:44.428Z,92685.88
2022-08-26T02:15:16.025Z,92682.78
2022-08-26T02:16:49.049Z,92690.09
2022-08-26T02:18:22.862Z,92690.00
2022-08-26T02:19:54.591Z,92690.00
2022-08-26T02:21:26.490Z,92683.38
2022-08-26T02:22:58.190Z,92679.88
2022-08-26T02:24:30.623Z,92679.09
2022-08-26T02:26:12.757Z,92679.09
2022-08-26T02:27:49.736Z,92687.59
2022-08-26T02:29:21.663Z,92693.31
2022-08-26T02:30:55.450Z,92691.31
2022-08-26T02:32:27.307Z,92685.16
2022-08-26T02:34:28.379Z,92692.16
2022-08-26T02:36:03.857Z,92693.75
2022-08-26T02:37:35.535Z,92693.81
2022-08-26T02:39:07.649Z,92688.03
2022-08-26T02:40:41.126Z,92690.81
2022-08-26T02:42:13.482Z,92698.97
2022-08-26T02:43:45.475Z,92686.94
2022-08-26T02:45:23.045Z,92686.22
2022-08-26T02:46:55.500Z,92693.59
2022-08-26T02:48:28.042Z,92693.53
2022-08-26T02:49:59.863Z,92685.31
2022-08-26T02:51:31.452Z,92692.69
2022-08-26T02:53:05.184Z,92697.81
2022-08-26T02:54:37.892Z,92691.66
2022-08-26T02:56:09.821Z,92691.31
2022-08-26T02:57:41.423Z,92684.28
2022-08-26T02:59:13.285Z,92690.53
2022-08-26T03:00:52.558Z,92693.25
2022-08-26T03:02:25.068Z,92694.81
2022-08-26T03:03:57.874Z,92689.38
2022-08-26T03:05:29.829Z,92697.97
2022-08-26T03:07:01.721Z,92688.66
2022-08-26T03:08:33.476Z,92692.09
2022-08-26T03:10:06.916Z,92686.22
2022-08-26T03:11:40.313Z,92686.66
2022-08-26T03:13:12.560Z,92690.16
2022-08-26T03:14:44.635Z,92681.22
2022-08-26T03:16:16.451Z,92686.22
2022-08-26T03:17:48.483Z,92688.88
2022-08-26T03:19:22.831Z,92686.81
2022-08-26T03:20:54.444Z,92686.38
2022-08-26T03:22:26.266Z,92685.94
2022-08-26T03:23:58.898Z,92679.31
2022-08-26T03:25:32.305Z,92687.81
2022-08-26T03:27:07.382Z,92682.38
2022-08-26T03:28:59.182Z,92682.72
2022-08-26T03:30:44.793Z,92683.88
2022-08-26T03:32:17.033Z,92684.22
2022-08-26T03:33:48.629Z,92682.28
2022-08-26T03:35:23.528Z,92684.22
2022-08-26T03:36:56.315Z,92682.66
2022-08-26T03:38:28.038Z,92685.72
2022-08-26T03:40:01.364Z,92685.28
2022-08-26T03:41:36.868Z,92682.22
2022-08-26T03:43:09.790Z,92684.22
2022-08-26T03:44:42.069Z,92685.09
2022-08-26T03:46:14.137Z,92687.47
2022-08-26T03:47:46.340Z,92685.09
2022-08-26T03:49:19.292Z,92687.81
2022-08-26T03:50:50.892Z,92683.28
2022-08-26T03:52:23.197Z,92690.00
2022-08-26T03:53:54.857Z,92695.44
2022-08-26T03:55:31.348Z,92688.03
2022-08-26T03:57:03.210Z,92686.03
2022-08-26T03:58:35.359Z,92681.38
2022-08-26T04:00:07.919Z,92688.03
2022-08-26T04:01:39.831Z,92680.31
2022-08-26T04:03:16.863Z,92686.22
2022-08-26T04:04:50.662Z,92678.19
2022-08-26T04:06:22.808Z,92677.91
2022-08-26T04:07:56.089Z,92675.63
2022-08-26T04:09:27.900Z,92676.47
2022-08-26T04:11:01.560Z,92679.19
2022-08-26T04:12:33.883Z,92682.69
2022-08-26T04:14:07.277Z,92677.69
2022-08-26T04:15:39.528Z,92681.91
2022-08-26T04:17:11.955Z,92686.19
2022-08-26T04:18:46.568Z,92678.41
2022-08-26T04:20:18.756Z,92681.91
2022-08-26T04:21:53.497Z,92678.78
2022-08-26T04:23:25.140Z,92684.16
2022-08-26T04:24:57.339Z,92694.69
2022-08-26T04:26:29.057Z,92688.13
2022-08-26T04:28:00.619Z,92688.91
2022-08-26T04:29:32.318Z,92686.19
2022-08-26T04:31:04.670Z,92692.00
2022-08-26T04:32:36.383Z,92683.91
2022-08-26T04:34:08.239Z,92680.47
2022-08-26T04:35:44.309Z,92680.16
2022-08-26T04:37:16.504Z,92678.31
2022-08-26T04:38:50.798Z,92672.44
2022-08-26T04:40:23.606Z,92679.38
2022-08-26T04:41:55.384Z,92679.44
2022-08-26T04:43:30.654Z,92682.19
2022-08-26T04:45:05.667Z,92680.59
2022-08-26T04:46:43.918Z,92677.44
2022-08-26T04:48:16.787Z,92674.72
2022-08-26T04:49:48.850Z,92678.31
2022-08-26T04:51:21.259Z,92684.66
2022-08-26T04:52:53.712Z,92685.78
2022-08-26T04:54:26.359Z,92687.25
2022-08-26T04:55:58.237Z,92690.78
2022-08-26T04:57:29.962Z,92688.19
2022-08-26T04:59:01.844Z,92684.84
2022-08-26T05:00:33.953Z,92693.03
2022-08-26T05:02:07.287Z,92683.72
2022-08-26T05:03:39.104Z,92689.19
2022-08-26T05:05:14.372Z,92695.06
2022-08-26T05:06:46.545Z,92691.25
2022-08-26T05:08:18.601Z,92682.78
2022-08-26T05:09:50.652Z,92689.06
2022-08-26T05:11:23.339Z,92694.63
2022-08-26T05:12:54.951Z,92697.00
2022-08-26T05:14:28.137Z,92692.75
2022-08-26T05:16:02.592Z,92697.50
2022-08-26T05:17:34.237Z,92687.06
2022-08-26T05:19:06.979Z,92692.56
2022-08-26T05:20:40.866Z,92689.13
2022-08-26T05:22:13.353Z,92686.81
2022-08-26T05:23:45.317Z,92685.66
2022-08-26T05:25:17.650Z,92688.38
2022-08-26T05:26:49.852Z,92688.38
2022-08-26T05:28:22.152Z,92694.97
2022-08-26T05:29:56.568Z,92696.63
2022-08-26T05:31:30.105Z,92696.00
2022-08-26T05:33:02.141Z,92700.81
2022-08-26T05:34:34.480Z,92698.66
2022-08-26T05:36:08.365Z,92691.47
2022-08-26T05:37:40.999Z,92693.53
2022-08-26T05:39:12.693Z,92698.75
2022-08-26T05:40:45.914Z,92708.28
2022-08-26T05:42:17.847Z,92706.59
2022-08-26T05:43:49.693Z,92702.13
2022-08-26T05:45:24.427Z,92695.28
2022-08-26T05:46:56.243Z,92701.72
2022-08-26T05:48:28.378Z,92698.38
2022-08-26T05:50:00.811Z,92709.06
2022-08-26T05:51:32.748Z,92699.91
2022-08-26T05:53:05.461Z,92702.41
2022-08-26T05:54:38.949Z,92695.47
2022-08-26T05:56:10.832Z,92697.13
2022-08-26T05:57:43.130Z,92703.06
2022-08-26T05:59:21.419Z,92701.50
2022-08-26T06:00:57.381Z,92707.03
2022-08-26T06:02:29.345Z,92710.50
2022-08-26T06:04:01.996Z,92713.25
2022-08-26T06:05:39.231Z,92716.75
2022-08-26T06:07:12.087Z,92703.13
2022-08-26T06:08:45.382Z,92716.84
2022-08-26T06:10:31.969Z,92712.97
2022-08-26T06:12:04.836Z,92712.25
2022-08-26T06:13:36.508Z,92704.44
2022-08-26T06:15:08.527Z,92706.06
2022-08-26T06:16:41.280Z,92702.97
2022-08-26T06:18:14.854Z,92699.13
2022-08-26T06:19:47.515Z,92700.72
2022-08-26T06:21:23.163Z,92697.66
2022-08-26T06:23:14.242Z,92700.06
2022-08-26T06:25:04.386Z,92703.66
2022-08-26T06:26:36.698Z,92702.88
2022-08-26T06:28:08.772Z,92699.31
2022-08-26T06:29:42.421Z,92704.81
2022-08-26T06:31:14.916Z,92703.28
2022-08-26T06:32:46.911Z,92703.28
2022-08-26T06:34:18.841Z,92704.84
2022-08-26T06:35:50.992Z,92693.88
2022-08-26T06:37:22.857Z,92696.59
2022-08-26T06:38:55.731Z,92709.16
2022-08-26T06:40:27.521Z,92699.41
2022-08-26T06:42:00.159Z,92709.22
2022-08-26T06:43:32.286Z,92711.97
2022-08-26T06:45:06.090Z,92706.84
2022-08-26T06:46:37.915Z,92709.59
2022-08-26T06:48:09.807Z,92705.69
2022-08-26T06:49:42.436Z,92710.41
2022-08-26T06:51:17.743Z,92714.31
2022-08-26T06:52:49.788Z,92704.88
2022-08-26T06:54:21.745Z,92702.50
2022-08-26T06:55:54.021Z,92705.69
2022-08-26T06:57:26.009Z,92713.94
2022-08-26T06:58:57.838Z,92699.03
2022-08-26T07:00:31.975Z,92700.97
2022-08-26T07:02:04.304Z,92702.50
2022-08-26T07:03:39.753Z,92703.66
2022-08-26T07:05:12.334Z,92702.44
2022-08-26T07:06:49.133Z,92705.13
2022-08-26T07:08:22.662Z,92704.28
2022-08-26T07:09:55.015Z,92712.06
2022-08-26T07:11:26.952Z,92711.34
2022-08-26T07:12:59.940Z,92711.75
2022-08-26T07:14:32.285Z,92715.66
2022-08-26T07:16:05.273Z,92716.50
2022-08-26T07:17:37.959Z,92716.84
2022-08-26T07:19:11.302Z,92710.97
2022-08-26T07:20:44.306Z,92707.88
2022-08-26T07:22:16.897Z,92707.13
2022-08-26T07:23:50.187Z,92714.63
2022-08-26T07:25:22.467Z,92718.94
2022-08-26T07:26:54.301Z,92718.97
2022-08-26T07:28:26.251Z,92715.06
2022-08-26T07:29:58.158Z,92711.50
2022-08-26T07:31:33.621Z,92711.06
2022-08-26T07:33:11.150Z,92702.44
2022-08-26T07:34:43.719Z,92709.47
2022-08-26T07:36:15.955Z,92709.44
2022-08-26T07:37:47.930Z,92710.25
2022-08-26T07:39:20.545Z,92713.38
2022-08-26T07:40:54.771Z,92712.19
2022-08-26T07:42:27.627Z,92711.81
2022-08-26T07:43:59.858Z,92718.09
2022-08-26T07:45:32.141Z,92721.63
2022-08-26T07:47:10.180Z,92714.16
2022-08-26T07:48:56.558Z,92712.59
2022-08-26T07:50:50.116Z,92711.41
2022-08-26T07:52:25.322Z,92721.19
2022-08-26T07:53:58.859Z,92714.91
2022-08-26T07:55:30.624Z,92723.91
2022-08-26T07:57:09.281Z,92723.47
2022-08-26T07:58:42.617Z,92720.31
2022-08-26T08:00:16.263Z,92727.31
2022-08-26T08:01:48.855Z,92725.28
2022-08-26T08:03:21.186Z,92714.94
2022-08-26T08:04:55.157Z,92717.25
2022-08-26T08:06:28.358Z,92718.75
2022-08-26T08:08:27.325Z,92714.03
2022-08-26T08:09:53.394Z,92718.34
2022-08-26T08:11:27.543Z,92708.09
2022-08-26T08:12:59.577Z,92717.84
2022-08-26T08:14:31.725Z,92709.88
2022-08-26T08:16:03.952Z,92704.25
2022-08-26T08:17:36.291Z,92707.34
2022-08-26T08:19:08.771Z,92711.66
2022-08-26T08:20:44.640Z,92699.81
2022-08-26T08:22:19.936Z,92702.97
2022-08-26T08:23:54.106Z,92704.09
2022-08-26T08:25:28.820Z,92705.09
2022-08-26T08:27:03.918Z,92702.19
2022-08-26T08:28:36.958Z,92710.75
2022-08-26T08:30:09.274Z,92704.78
2022-08-26T08:31:55.884Z,92702.34
2022-08-26T08:33:31.806Z,92708.25
2022-08-26T08:35:11.107Z,92705.09
2022-08-26T08:36:43.515Z,92700.81
2022-08-26T08:38:15.906Z,92692.06
2022-08-26T08:39:47.843Z,92703.69
2022-08-26T08:41:24.485Z,92700.75
2022-08-26T08:42:58.159Z,92699.00
2022-08-26T08:44:30.681Z,92698.03
2022-08-26T08:46:04.662Z,92693.84
2022-08-26T08:47:37.891Z,92694.19
2022-08-26T08:49:09.945Z,92695.75
2022-08-26T08:50:48.178Z,92695.69
2022-08-26T08:52:29.052Z,92696.41
2022-08-26T08:54:02.028Z,92695.56
2022-08-26T08:55:40.845Z,92700.13
2022-08-26T08:57:13.451Z,92695.63
2022-08-26T08:58:45.335Z,92698.19
2022-08-26T09:00:18.220Z,92690.19
2022-08-26T09:02:03.878Z,92695.56
2022-08-26T09:03:41.935Z,92691.22
2022-08-26T09:05:19.512Z,92684.75
2022-08-26T09:06:53.156Z,92680.72
2022-08-26T09:08:27.681Z,92676.72
2022-08-26T09:10:20.622Z,92670.31
2022-08-26T09:11:52.365Z,92670.06
2022-08-26T09:13:26.301Z,92671.72
2022-08-26T09:15:06.034Z,92669.97
2022-08-26T09:16:46.884Z,92667.25
2022-08-26T09:18:25.617Z,92666.41
2022-08-26T09:20:24.035Z,92666.53
2022-08-26T09:21:59.386Z,92668.13
2022-08-26T09:23:32.272Z,92666.59
2022-08-26T09:25:05.959Z,92667.78
2022-08-26T09:26:40.439Z,92669.44
2022-08-26T09:28:13.850Z,92665.53
2022-08-26T09:29:45.741Z,92665.63
2022-08-26T09:31:23.458Z,92662.09
2022-08-26T09:33:10.225Z,92669.38
2022-08-26T09:35:02.119Z,92670.31
2022-08-26T09:36:41.278Z,92666.78
2022-08-26T09:38:33.843Z,92667.97
2022-08-26T09:40:34.940Z,92667.47
2022-08-26T09:42:11.634Z,92670.44
2022-08-26T09:43:43.863Z,92667.91
2022-08-26T09:45:17.851Z,92670.13
2022-08-26T09:47:15.453Z,92665.47
2022-08-26T09:48:47.067Z,92669.47
2022-08-26T09:50:29.353Z,92672.41
2022-08-26T09:52:09.495Z,92665.84
2022-08-26T09:53:51.901Z,92664.63
2022-08-26T09:55:23.918Z,92655.41
2022-08-26T09:56:56.711Z,92661.84
2022-08-26T09:58:38.420Z,92661.94
2022-08-26T10:00:30.900Z,92662.41
2022-08-26T10:02:35.680Z,92654.69
2022-08-26T10:04:08.673Z,92655.88
2022-08-26T10:05:48.987Z,92654.09
2022-08-26T10:07:40.798Z,92647.63
2022-08-26T10:09:14.286Z,92658.34
2022-08-26T10:10:46.476Z,92646.56
2022-08-26T10:12:21.797Z,92647.59
2022-08-26T10:14:04.467Z,92645.47
2022-08-26T10:15:41.065Z,92651.72
2022-08-26T10:17:20.609Z,92648.81
2022-08-26T10:19:12.334Z,92640.50
2022-08-26T10:20:52.183Z,92643.06
2022-08-26T10:22:29.989Z,92647.69
2022-08-26T10:24:02.576Z,92641.88
2022-08-26T10:25:37.087Z,92647.91
2022-08-26T10:27:19.611Z,92644.91
2022-08-26T10:29:09.494Z,92644.38
2022-08-26T10:30:43.370Z,92647.91
2022-08-26T10:32:26.766Z,92656.94
2022-08-26T10:34:00.924Z,92645.91
2022-08-26T10:35:33.045Z,92651.38
2022-08-26T10:37:16.753Z,92648.41
2022-08-26T10:38:48.760Z,92641.00
2022-08-26T10:40:27.730Z,92634.31
2022-08-26T10:42:02.207Z,92641.66
2022-08-26T10:43:36.473Z,92649.03
2022-08-26T10:45:15.321Z,92647.63
2022-08-26T10:46:51.248Z,92645.66
2022-08-26T10:48:24.028Z,92639.69
2022-08-26T10:50:00.440Z,92642.34
2022-08-26T10:51:38.896Z,92637.28
2022-08-26T10:53:29.196Z,92639.38
2022-08-26T10:55:23.720Z,92647.81
2022-08-26T10:57:02.712Z,92640.25
2022-08-26T10:58:53.533Z,92636.94
2022-08-26T11:00:46.563Z,92631.97
2022-08-26T11:02:24.710Z,92638.75
2022-08-26T11:04:01.612Z,92630.72
2022-08-26T11:05:35.229Z,92641.53
2022-08-26T11:07:26.556Z,92633.09
2022-08-26T11:09:02.210Z,92631.94
2022-08-26T11:10:44.106Z,92635.28
2022-08-26T11:12:37.339Z,92634.84
2022-08-26T11:14:12.476Z,92625.84
2022-08-26T11:15:54.074Z,92629.06
2022-08-26T11:18:03.471Z,92627.69
2022-08-26T11:20:02.170Z,92627.91
2022-08-26T11:21:50.803Z,92619.88
2022-08-26T11:23:23.228Z,92624.72
2022-08-26T11:24:55.889Z,92637.06
2022-08-26T11:26:55.410Z,92632.78
2022-08-26T11:28:45.863Z,92636.91
2022-08-26T11:30:24.174Z,92630.69
2022-08-26T11:31:56.640Z,92631.47
2022-08-26T11:33:47.653Z,92631.94
2022-08-26T11:35:19.883Z,92635.72
2022-08-26T11:36:55.255Z,92637.09
2022-08-26T11:38:30.442Z,92632.41
2022-08-26T11:40:05.100Z,92626.97
2022-08-26T11:41:37.146Z,92621.97
2022-08-26T11:43:19.156Z,92634.63
2022-08-26T11:44:52.108Z,92624.72
2022-08-26T11:46:25.888Z,92615.38
2022-08-26T11:47:58.613Z,92631.38
2022-08-26T11:49:32.679Z,92617.03
2022-08-26T11:51:09.530Z,92623.16
2022-08-26T11:52:42.992Z,92622.13
2022-08-26T11:54:16.877Z,92619.34
2022-08-26T11:56:02.973Z,92626.66
2022-08-26T11:57:36.026Z,92622.00
2022-08-26T11:59:11.959Z,92620.34
2022-08-26T12:00:46.915Z,92621.56
2022-08-26T12:02:19.974Z,92621.00
2022-08-26T12:03:52.652Z,92611.31
2022-08-26T12:05:31.975Z,92610.25
2022-08-26T12:07:05.254Z,92600.78
2022-08-26T12:08:44.244Z,92612.41
2022-08-26T12:10:25.450Z,92605.28
2022-08-26T12:12:24.686Z,92603.28
2022-08-26T12:14:08.568Z,92595.72
2022-08-26T12:15:40.763Z,92596.19
2022-08-26T12:17:17.173Z,92597.41
2022-08-26T12:18:52.235Z,92587.72
2022-08-26T12:20:47.155Z,92598.22
2022-08-26T12:22:48.222Z,92601.06
2022-08-26T12:24:21.736Z,92607.91
2022-08-26T12:26:06.627Z,92593.72
2022-08-26T12:27:42.706Z,92593.91
2022-08-26T12:29:28.901Z,92591.03
2022-08-26T12:31:02.294Z,92591.59
2022-08-26T12:32:35.686Z,92600.34
2022-08-26T12:34:12.766Z,92593.03
2022-08-26T12:35:54.347Z,92593.13
2022-08-26T12:37:30.249Z,92594.50
2022-08-26T12:39:28.601Z,92590.63
2022-08-26T12:41:00.500Z,92601.19
2022-08-26T12:42:42.462Z,92590.84
2022-08-26T12:44:34.690Z,92593.25
2022-08-26T12:46:06.865Z,92601.56
2022-08-26T12:47:44.137Z,92600.47
2022-08-26T12:49:19.177Z,92603.09
2022-08-26T12:50:52.357Z,92595.28
2022-08-26T12:52:30.634Z,92594.84
2022-08-26T12:54:06.880Z,92595.34
2022-08-26T12:55:39.460Z,92596.34
2022-08-26T12:57:11.606Z,92597.22
2022-08-26T12:58:44.162Z,92588.00
2022-08-26T13:00:32.383Z,92591.13
2022-08-26T13:02:05.631Z,92583.75
2022-08-26T13:03:37.897Z,92584.19
2022-08-26T13:05:11.646Z,92581.97
2022-08-26T13:06:44.483Z,92595.69
2022-08-26T13:08:27.536Z,92595.50
2022-08-26T13:10:00.839Z,92593.25
2022-08-26T13:11:42.482Z,92598.13
2022-08-26T13:13:14.331Z,92585.34
2022-08-26T13:14:46.504Z,92587.19
2022-08-26T13:16:19.809Z,92587.00
2022-08-26T13:17:51.754Z,92582.28
2022-08-26T13:19:24.135Z,92595.66
2022-08-26T13:20:56.497Z,92594.88
2022-08-26T13:22:28.466Z,92589.31
2022-08-26T13:24:13.451Z,92589.94
2022-08-26T13:25:45.505Z,92580.69
2022-08-26T13:27:20.716Z,92582.84
2022-08-26T13:28:53.276Z,92578.03
2022-08-26T13:30:33.883Z,92581.94
2022-08-26T13:32:06.491Z,92575.09
2022-08-26T13:33:38.282Z,92581.63
2022-08-26T13:35:11.982Z,92577.44
2022-08-26T13:36:45.415Z,92575.69
2022-08-26T13:38:18.604Z,92574.16
2022-08-26T13:40:06.976Z,92580.59
2022-08-26T13:41:39.556Z,92574.59
2022-08-26T13:43:12.104Z,92574.28
2022-08-26T13:44:45.217Z,92578.28
2022-08-26T13:46:16.946Z,92577.63
2022-08-26T13:47:50.261Z,92570.63
2022-08-26T13:49:22.936Z,92579.06
2022-08-26T13:50:55.156Z,92574.41
2022-08-26T13:52:30.678Z,92579.63
2022-08-26T13:54:03.140Z,92576.63
2022-08-26T13:55:35.478Z,92570.84
2022-08-26T13:57:07.454Z,92568.94
2022-08-26T13:58:39.702Z,92568.59
2022-08-26T14:00:12.311Z,92577.44
2022-08-26T14:01:44.669Z,92571.56
2022-08-26T14:03:17.148Z,92566.34
2022-08-26T14:04:49.297Z,92570.16
2022-08-26T14:06:21.230Z,92575.13
2022-08-26T14:07:53.514Z,92573.47
2022-08-26T14:09:25.664Z,92567.94
2022-08-26T14:10:57.620Z,92571.50
2022-08-26T14:12:29.828Z,92571.19
2022-08-26T14:14:01.907Z,92569.19
2022-08-26T14:15:34.835Z,92570.84
2022-08-26T14:17:06.819Z,92569.16
2022-08-26T14:18:43.643Z,92571.03
2022-08-26T14:20:25.254Z,92568.22
2022-08-26T14:21:57.057Z,92563.00
2022-08-26T14:23:28.944Z,92564.94
2022-08-26T14:25:01.047Z,92564.72
2022-08-26T14:26:33.272Z,92567.94
2022-08-26T14:28:05.069Z,92562.53
2022-08-26T14:29:37.001Z,92565.75
2022-08-26T14:31:09.142Z,92563.00
2022-08-26T14:32:42.944Z,92570.44
2022-08-26T14:34:14.953Z,92572.31
2022-08-26T14:35:48.875Z,92567.22
2022-08-26T14:37:21.178Z,92568.78
2022-08-26T14:38:54.127Z,92570.47
2022-08-26T14:40:27.345Z,92570.78
2022-08-26T14:41:59.135Z,92577.09
2022-08-26T14:43:31.424Z,92575.31
2022-08-26T14:45:04.192Z,92571.09
2022-08-26T14:46:37.893Z,92572.97
2022-08-26T14:48:09.889Z,92569.84
2022-08-26T14:49:41.902Z,92572.44
2022-08-26T14:51:13.609Z,92568.75
2022-08-26T14:53:03.736Z,92576.44
2022-08-26T14:54:35.475Z,92573.03
2022-08-26T14:56:07.247Z,92575.94
2022-08-26T14:57:39.406Z,92574.03
2022-08-26T14:59:11.270Z,92576.50
2022-08-26T15:00:42.980Z,92577.50
2022-08-26T15:02:32.488Z,92573.63
2022-08-26T15:04:05.846Z,92576.28
2022-08-26T15:05:38.181Z,92568.06
2022-08-26T15:07:12.654Z,92576.41
2022-08-26T15:08:44.662Z,92578.94
2022-08-26T15:10:17.153Z,92577.50
2022-08-26T15:11:48.908Z,92575.97
2022-08-26T15:13:21.088Z,92578.19
2022-08-26T15:14:55.385Z,92577.63
2022-08-26T15:16:30.194Z,92571.50
2022-08-26T15:18:03.179Z,92583.59
2022-08-26T15:19:35.306Z,92577.16
2022-08-26T15:21:07.540Z,92576.38
2022-08-26T15:22:39.543Z,92571.72
2022-08-26T15:24:11.440Z,92576.81
2022-08-26T15:25:43.509Z,92573.16
2022-08-26T15:27:15.347Z,92578.81
2022-08-26T15:28:47.038Z,92574.19
2022-08-26T15:30:18.700Z,92575.94
2022-08-26T15:31:50.710Z,92573.91
2022-08-26T15:33:22.659Z,92575.31
2022-08-26T15:34:54.531Z,92568.31
2022-08-26T15:36:26.993Z,92571.31
2022-08-26T15:37:58.726Z,92566.06
2022-08-26T15:39:30.658Z,92570.16
2022-08-26T15:41:03.354Z,92565.72
2022-08-26T15:42:35.429Z,92567.81
2022-08-26T15:44:07.398Z,92567.16
2022-08-26T15:45:39.265Z,92563.25
2022-08-26T15:47:11.503Z,92565.69
2022-08-26T15:48:43.223Z,92562.13
2022-08-26T15:50:15.041Z,92564.69
2022-08-26T15:51:48.517Z,92566.50
2022-08-26T15:53:21.861Z,92567.81
2022-08-26T15:54:53.624Z,92563.78
2022-08-26T15:56:26.206Z,92558.25
2022-08-26T15:57:58.773Z,92562.53
2022-08-26T15:59:33.230Z,92564.31
2022-08-26T16:01:05.242Z,92569.19
2022-08-26T16:02:36.916Z,92555.78
2022-08-26T16:04:08.624Z,92555.09
2022-08-26T16:05:41.019Z,92553.16
2022-08-26T16:07:12.972Z,92559.25
2022-08-26T16:08:45.298Z,92549.56
2022-08-26T16:10:18.753Z,92551.88
2022-08-26T16:11:50.608Z,92545.31
2022-08-26T16:13:22.225Z,92550.16
2022-08-26T16:14:54.174Z,92552.69
2022-08-26T16:16:26.769Z,92553.28
2022-08-26T16:18:02.616Z,92552.31
2022-08-26T16:19:34.590Z,92550.47
2022-08-26T16:21:13.728Z,92555.75
2022-08-26T16:22:45.802Z,92554.25
2022-08-26T16:24:18.251Z,92559.19
2022-08-26T16:25:50.091Z,92551.44
2022-08-26T16:27:23.236Z,92555.59
2022-08-26T16:28:55.213Z,92552.56
2022-08-26T16:30:26.898Z,92557.31
2022-08-26T16:31:58.804Z,92560.56
2022-08-26T16:33:30.562Z,92563.88
2022-08-26T16:35:02.233Z,92559.38
2022-08-26T16:36:34.185Z,92563.81
2022-08-26T16:38:05.906Z,92557.94
2022-08-26T16:39:40.186Z,92559.72
2022-08-26T16:41:16.942Z,92565.00
2022-08-26T16:42:49.153Z,92565.19
2022-08-26T16:44:22.402Z,92560.09
2022-08-26T16:45:54.352Z,92562.25
2022-08-26T16:47:26.638Z,92565.94
2022-08-26T16:48:58.441Z,92559.03
2022-08-26T16:50:30.253Z,92557.94
2022-08-26T16:52:02.264Z,92565.06
2022-08-26T16:53:34.021Z,92566.50
2022-08-26T16:55:06.720Z,92569.59
2022-08-26T16:56:38.742Z,92565.06
2022-08-26T16:58:10.534Z,92558.94
2022-08-26T16:59:42.387Z,92558.19
2022-08-26T17:01:14.406Z,92560.66
2022-08-26T17:02:46.076Z,92562.78
2022-08-26T17:04:20.123Z,92562.56
2022-08-26T17:05:52.005Z,92567.31
2022-08-26T17:07:23.630Z,92562.19
2022-08-26T17:08:55.381Z,92560.28
2022-08-26T17:10:27.498Z,92566.28
2022-08-26T17:11:59.163Z,92566.03
2022-08-26T17:13:35.249Z,92561.78
2022-08-26T17:15:08.156Z,92572.78
2022-08-26T17:16:40.274Z,92573.25
2022-08-26T17:18:12.349Z,92572.53
2022-08-26T17:19:46.835Z,92574.63
2022-08-26T17:21:18.992Z,92571.69
2022-08-26T17:22:51.140Z,92567.47
2022-08-26T17:24:22.866Z,92576.13
2022-08-26T17:25:54.780Z,92574.63
2022-08-26T17:27:26.741Z,92576.31
2022-08-26T17:28:58.508Z,92573.63
2022-08-26T17:30:30.999Z,92579.16
2022-08-26T17:32:03.009Z,92581.50
2022-08-26T17:33:34.968Z,92581.13
2022-08-26T17:35:07.065Z,92583.09
2022-08-26T17:36:38.764Z,92585.84
2022-08-26T17:38:10.720Z,92577.25
2022-08-26T17:39:44.249Z,92587.88
2022-08-26T17:41:16.824Z,92593.78
2022-08-26T17:42:48.633Z,92592.22
2022-08-26T17:44:20.352Z,92585.16
2022-08-26T17:45:52.806Z,92597.78
2022-08-26T17:47:24.613Z,92592.38
2022-08-26T17:48:56.699Z,92590.81
2022-08-26T17:50:28.555Z,92593.19
2022-08-26T17:52:00.275Z,92592.81
2022-08-26T17:53:32.252Z,92596.00
2022-08-26T17:55:04.754Z,92595.63
2022-08-26T17:56:36.742Z,92598.41
2022-08-26T17:58:08.780Z,92594.09
2022-08-26T17:59:42.637Z,92598.41
2022-08-26T18:01:14.485Z,92597.25
2022-08-26T18:02:46.316Z,92595.28
2022-08-26T18:04:18.213Z,92600.00
2022-08-26T18:05:50.592Z,92590.63
2022-08-26T18:07:22.437Z,92592.19
2022-08-26T18:08:54.938Z,92604.41
2022-08-26T18:10:26.793Z,92596.56
2022-08-26T18:11:58.856Z,92598.97
2022-08-26T18:13:30.455Z,92606.41
2022-08-26T18:15:02.370Z,92604.88
2022-08-26T18:16:38.465Z,92599.38
2022-08-26T18:18:10.208Z,92607.59
2022-08-26T18:21:19.458Z,92611.56
2022-08-26T18:22:51.199Z,92609.63
2022-08-26T18:24:22.928Z,92608.84
2022-08-26T18:25:54.668Z,92606.09
2022-08-26T18:27:26.564Z,92610.03
2022-08-26T18:28:58.581Z,92605.31
2022-08-26T18:30:30.306Z,92609.25
2022-08-26T18:32:02.526Z,92611.59
2022-08-26T18:33:34.347Z,92607.31
2022-08-26T18:35:06.420Z,92616.31